createdAt,value
2018-03-13T00:00:18.459Z,0
2018-03-13T00:01:19.068Z,0
2018-03-13T00:02:19.670Z,0
2018-03-13T00:03:20.266Z,0
2018-03-13T00:04:20.862Z,0
2018-03-13T00:05:21.469Z,0
2018-03-13T00:06:22.074Z,0
2018-03-13T00:07:22.678Z,0
2018-03-13T00:08:23.319Z,0
2018-03-13T00:09:23.883Z,0
2018-03-13T00:10:24.472Z,0
2018-03-13T00:11:25.082Z,0
2018-03-13T00:12:25.682Z,0
2018-03-13T00:13:26.273Z,0
2018-03-13T00:14:26.882Z,0
2018-03-13T00:15:27.474Z,0
2018-03-13T00:16:28.137Z,0
2018-03-13T00:17:28.741Z,0
2018-03-13T00:18:29.344Z,0
2018-03-13T00:19:29.945Z,0
2018-03-13T00:20:30.533Z,0
2018-03-13T00:21:31.135Z,0
2018-03-13T00:22:31.715Z,0
2018-03-13T00:23:32.315Z,0
2018-03-13T00:24:32.910Z,0
2018-03-13T00:25:33.511Z,0
2018-03-13T00:26:34.107Z,0
2018-03-13T00:27:34.723Z,0
2018-03-13T00:28:35.306Z,0
2018-03-13T00:29:35.910Z,0
2018-03-13T00:30:36.511Z,0
2018-03-13T00:31:37.104Z,0
2018-03-13T00:32:37.698Z,0
2018-03-13T00:33:38.298Z,0
2018-03-13T00:34:38.897Z,0
2018-03-13T00:35:39.498Z,0
2018-03-13T00:36:40.101Z,0
2018-03-13T00:37:40.709Z,0
2018-03-13T00:38:41.298Z,0
2018-03-13T00:39:41.908Z,0
2018-03-13T00:40:42.501Z,0
2018-03-13T00:41:43.104Z,0
2018-03-13T00:42:43.709Z,0
2018-03-13T00:43:44.313Z,0
2018-03-13T00:44:44.914Z,0
2018-03-13T00:45:45.547Z,0
2018-03-13T00:46:46.128Z,0
2018-03-13T00:47:46.728Z,0
2018-03-13T00:48:47.324Z,0
2018-03-13T00:49:47.925Z,0
2018-03-13T00:50:48.526Z,0
2018-03-13T00:51:49.116Z,0
2018-03-13T00:52:49.717Z,0
2018-03-13T00:53:50.318Z,0
2018-03-13T00:54:50.924Z,0
2018-03-13T00:55:51.524Z,0
2018-03-13T00:56:52.129Z,0
2018-03-13T00:57:52.730Z,0
2018-03-13T00:58:53.326Z,0
2018-03-13T00:59:53.929Z,0
2018-03-13T01:00:54.548Z,0
2018-03-13T01:01:55.155Z,0
2018-03-13T01:02:55.759Z,0
2018-03-13T01:03:56.351Z,0
2018-03-13T01:04:56.947Z,0
2018-03-13T01:05:57.544Z,0
2018-03-13T01:06:58.150Z,0
2018-03-13T01:07:58.753Z,0
2018-03-13T01:08:59.348Z,0
2018-03-13T01:09:59.948Z,0
2018-03-13T01:11:00.552Z,0
2018-03-13T01:12:01.147Z,0
2018-03-13T01:13:01.756Z,0
2018-03-13T01:14:02.352Z,0
2018-03-13T01:15:02.950Z,0
2018-03-13T01:16:03.537Z,0
2018-03-13T01:17:04.131Z,0
2018-03-13T01:18:04.721Z,0
2018-03-13T01:19:05.318Z,0
2018-03-13T01:20:05.916Z,0
2018-03-13T01:21:06.519Z,0
2018-03-13T01:22:07.115Z,0
2018-03-13T01:23:07.717Z,0
2018-03-13T01:24:08.314Z,0
2018-03-13T01:25:08.907Z,0
2018-03-13T01:26:09.507Z,0
2018-03-13T01:27:10.098Z,0
2018-03-13T01:28:10.687Z,0
2018-03-13T01:29:11.295Z,0
2018-03-13T01:30:11.893Z,0
2018-03-13T01:31:12.493Z,0
2018-03-13T01:32:13.091Z,0
2018-03-13T01:33:13.700Z,0
2018-03-13T01:34:14.294Z,0
2018-03-13T01:35:14.887Z,0
2018-03-13T01:36:15.510Z,0
2018-03-13T01:37:16.085Z,0
2018-03-13T01:38:16.686Z,0
2018-03-13T01:39:17.287Z,0
2018-03-13T01:40:17.881Z,0
2018-03-13T01:41:18.475Z,0
2018-03-13T01:42:19.073Z,0
2018-03-13T01:43:19.669Z,0
2018-03-13T01:44:20.276Z,0
2018-03-13T01:45:20.875Z,0
2018-03-13T01:46:21.460Z,0
2018-03-13T01:47:22.054Z,0
2018-03-13T01:48:22.645Z,0
2018-03-13T01:49:23.245Z,0
2018-03-13T01:50:23.843Z,0
2018-03-13T01:51:24.442Z,0
2018-03-13T01:52:25.035Z,0
2018-03-13T01:53:25.627Z,0
2018-03-13T01:54:26.234Z,0
2018-03-13T01:55:26.829Z,0
2018-03-13T01:56:27.434Z,0
2018-03-13T01:57:28.033Z,0
2018-03-13T01:58:28.634Z,0
2018-03-13T01:59:29.242Z,0
2018-03-13T02:00:29.840Z,0
2018-03-13T02:01:30.436Z,0
2018-03-13T02:02:31.038Z,0
2018-03-13T02:03:31.684Z,0
2018-03-13T02:04:32.261Z,0
2018-03-13T02:05:32.859Z,0
2018-03-13T02:06:33.477Z,0
2018-03-13T02:07:34.083Z,0
2018-03-13T02:08:34.680Z,0
2018-03-13T02:09:35.270Z,0
2018-03-13T02:10:35.873Z,0
2018-03-13T02:11:36.479Z,0
2018-03-13T02:12:37.079Z,0
2018-03-13T02:13:37.679Z,0
2018-03-13T02:14:38.293Z,0
2018-03-13T02:15:38.881Z,0
2018-03-13T02:16:39.474Z,0
2018-03-13T02:17:40.083Z,0
2018-03-13T02:18:40.685Z,0
2018-03-13T02:19:41.281Z,0
2018-03-13T02:20:41.877Z,0
2018-03-13T02:21:42.489Z,0
2018-03-13T02:22:43.090Z,0
2018-03-13T02:23:43.706Z,0
2018-03-13T02:24:44.314Z,0
2018-03-13T02:25:44.903Z,0
2018-03-13T02:26:45.506Z,0
2018-03-13T02:27:46.113Z,0
2018-03-13T02:28:46.721Z,0
2018-03-13T02:29:47.324Z,0
2018-03-13T02:30:47.906Z,0
2018-03-13T02:31:48.504Z,0
2018-03-13T02:32:49.115Z,0
2018-03-13T02:33:49.713Z,0
2018-03-13T02:34:50.312Z,0
2018-03-13T02:35:50.916Z,0
2018-03-13T02:36:51.509Z,0
2018-03-13T02:37:52.107Z,0
2018-03-13T02:38:52.702Z,0
2018-03-13T02:39:53.292Z,0
2018-03-13T02:40:53.887Z,0
2018-03-13T02:41:54.486Z,0
2018-03-13T02:42:55.075Z,0
2018-03-13T02:43:55.674Z,0
2018-03-13T02:44:56.304Z,0
2018-03-13T02:45:56.869Z,0
2018-03-13T02:46:57.472Z,0
2018-03-13T02:47:58.075Z,0
2018-03-13T02:48:58.671Z,0
2018-03-13T02:49:59.274Z,0
2018-03-13T02:50:59.872Z,0
2018-03-13T02:52:00.460Z,0
2018-03-13T02:53:01.085Z,0
2018-03-13T02:54:01.672Z,0
2018-03-13T02:55:02.262Z,0
2018-03-13T02:56:02.864Z,0
2018-03-13T02:57:03.452Z,0
2018-03-13T02:58:04.049Z,0
2018-03-13T02:59:04.657Z,0
2018-03-13T03:00:05.261Z,0
2018-03-13T03:01:05.850Z,0
2018-03-13T03:02:06.444Z,0
2018-03-13T03:03:07.035Z,0
2018-03-13T03:04:07.630Z,0
2018-03-13T03:05:08.227Z,0
2018-03-13T03:06:08.830Z,0
2018-03-13T03:07:09.420Z,0
2018-03-13T03:08:10.027Z,0
2018-03-13T03:09:10.620Z,0
2018-03-13T03:10:11.226Z,0
2018-03-13T03:11:11.828Z,0
2018-03-13T03:12:12.422Z,0
2018-03-13T03:13:13.017Z,0
2018-03-13T03:14:13.629Z,0
2018-03-13T03:15:14.218Z,0
2018-03-13T03:16:14.822Z,0
2018-03-13T03:17:15.437Z,0
2018-03-13T03:18:16.012Z,0
2018-03-13T03:19:16.614Z,0
2018-03-13T03:20:17.219Z,0
2018-03-13T03:21:17.825Z,0
2018-03-13T03:22:18.413Z,0
2018-03-13T03:23:19.006Z,0
2018-03-13T03:24:19.605Z,0
2018-03-13T03:25:20.198Z,0
2018-03-13T03:26:20.805Z,0
2018-03-13T03:27:21.397Z,0
2018-03-13T03:28:21.995Z,0
2018-03-13T03:29:22.592Z,0
2018-03-13T03:30:23.183Z,0
2018-03-13T03:31:23.791Z,0
2018-03-13T03:32:24.392Z,0
2018-03-13T03:33:25.001Z,0
2018-03-13T03:34:25.605Z,0
2018-03-13T03:35:26.198Z,0
2018-03-13T03:36:26.804Z,0
2018-03-13T03:37:27.446Z,0
2018-03-13T03:38:28.011Z,0
2018-03-13T03:39:28.601Z,0
2018-03-13T03:40:29.209Z,0
2018-03-13T03:41:29.811Z,0
2018-03-13T03:42:30.416Z,0
2018-03-13T03:43:31.007Z,0
2018-03-13T03:44:31.611Z,0
2018-03-13T03:45:32.204Z,0
2018-03-13T03:46:32.807Z,0
2018-03-13T03:47:33.405Z,0
2018-03-13T03:48:33.998Z,0
2018-03-13T03:49:34.598Z,0
2018-03-13T03:50:35.204Z,0
2018-03-13T03:51:35.802Z,0
2018-03-13T03:52:36.409Z,0
2018-03-13T03:53:37.004Z,0
2018-03-13T03:54:37.597Z,0
2018-03-13T03:55:38.188Z,0
2018-03-13T03:56:38.790Z,0
2018-03-13T03:57:39.398Z,0
2018-03-13T03:58:39.988Z,0
2018-03-13T03:59:40.588Z,0
2018-03-13T04:00:41.198Z,0
2018-03-13T04:01:41.797Z,0
2018-03-13T04:02:42.396Z,0
2018-03-13T04:03:42.980Z,0
2018-03-13T04:04:43.584Z,0
2018-03-13T04:05:44.181Z,0
2018-03-13T04:06:44.782Z,0
2018-03-13T04:07:45.387Z,0
2018-03-13T04:08:45.981Z,0
2018-03-13T04:09:46.576Z,0
2018-03-13T04:10:47.167Z,0
2018-03-13T04:11:47.756Z,0
2018-03-13T04:12:48.353Z,0
2018-03-13T04:13:48.947Z,0
2018-03-13T04:14:49.553Z,0
2018-03-13T04:15:50.148Z,0
2018-03-13T04:16:50.743Z,0
2018-03-13T04:17:51.336Z,0
2018-03-13T04:18:51.926Z,0
2018-03-13T04:19:52.520Z,0
2018-03-13T04:20:53.128Z,0
2018-03-13T04:21:53.719Z,0
2018-03-13T04:22:54.322Z,0
2018-03-13T04:23:54.917Z,0
2018-03-13T04:24:55.510Z,0
2018-03-13T04:25:56.100Z,0
2018-03-13T04:26:56.697Z,0
2018-03-13T04:27:57.286Z,0
2018-03-13T04:28:57.880Z,0
2018-03-13T04:29:58.494Z,0
2018-03-13T04:30:59.093Z,0
2018-03-13T04:31:59.693Z,0
2018-03-13T04:33:00.281Z,0
2018-03-13T04:34:00.887Z,0
2018-03-13T04:35:01.478Z,0
2018-03-13T04:36:02.072Z,0
2018-03-13T04:37:02.665Z,0
2018-03-13T04:38:03.269Z,0
2018-03-13T04:39:03.877Z,0
2018-03-13T04:40:04.515Z,0
2018-03-13T04:41:05.089Z,0
2018-03-13T04:42:05.691Z,0
2018-03-13T04:43:06.287Z,0
2018-03-13T04:44:06.886Z,0
2018-03-13T04:45:07.485Z,0
2018-03-13T04:46:08.093Z,0
2018-03-13T04:47:08.685Z,0
2018-03-13T04:48:09.283Z,0
2018-03-13T04:49:09.980Z,0
2018-03-13T04:50:10.616Z,0
2018-03-13T04:51:11.150Z,0
2018-03-13T04:52:11.751Z,0
2018-03-13T04:53:12.350Z,0
2018-03-13T04:54:12.944Z,0
2018-03-13T04:55:13.575Z,0
2018-03-13T04:56:14.126Z,0
2018-03-13T04:57:14.717Z,0
2018-03-13T04:58:15.322Z,0
2018-03-13T04:59:15.911Z,0
2018-03-13T05:00:16.509Z,0
2018-03-13T05:01:17.098Z,0
2018-03-13T05:02:17.696Z,0
2018-03-13T05:03:18.304Z,0
2018-03-13T05:04:18.909Z,0
2018-03-13T05:05:19.500Z,0
2018-03-13T05:06:20.099Z,0
2018-03-13T05:07:20.690Z,0
2018-03-13T05:08:21.280Z,0
2018-03-13T05:09:21.888Z,0
2018-03-13T05:10:22.481Z,0
2018-03-13T05:11:23.085Z,0
2018-03-13T05:12:23.679Z,0
2018-03-13T05:13:24.268Z,0
2018-03-13T05:14:24.873Z,0
2018-03-13T05:15:25.483Z,0
2018-03-13T05:16:26.077Z,0
2018-03-13T05:17:26.671Z,0
2018-03-13T05:18:27.331Z,0
2018-03-13T05:19:27.908Z,0
2018-03-13T05:20:28.515Z,0
2018-03-13T05:21:29.107Z,0
2018-03-13T05:22:29.762Z,0
2018-03-13T05:23:30.368Z,0
2018-03-13T05:24:30.956Z,0
2018-03-13T05:25:31.543Z,0
2018-03-13T05:26:32.142Z,0
2018-03-13T05:27:32.738Z,0
2018-03-13T05:28:33.430Z,0
2018-03-13T05:29:34.048Z,0
2018-03-13T05:30:34.634Z,0
2018-03-13T05:31:35.237Z,0
2018-03-13T05:32:35.827Z,0
2018-03-13T05:33:36.433Z,0
2018-03-13T05:34:37.031Z,0
2018-03-13T05:35:37.627Z,0
2018-03-13T05:36:38.274Z,0
2018-03-13T05:37:38.855Z,0
2018-03-13T05:38:39.533Z,0
2018-03-13T05:39:40.109Z,0
2018-03-13T05:40:40.714Z,0
2018-03-13T05:41:41.309Z,0
2018-03-13T05:42:41.907Z,0
2018-03-13T05:43:42.518Z,0
2018-03-13T05:44:43.116Z,0
2018-03-13T05:45:43.722Z,0
2018-03-13T05:46:44.331Z,0
2018-03-13T05:47:44.935Z,0
2018-03-13T05:48:45.525Z,0
2018-03-13T05:49:46.130Z,0
2018-03-13T05:50:46.739Z,0
2018-03-13T05:51:47.325Z,0
2018-03-13T05:52:47.948Z,0
2018-03-13T05:53:48.524Z,5
2018-03-13T05:54:49.207Z,5
2018-03-13T05:55:49.777Z,5
2018-03-13T05:56:50.377Z,5
2018-03-13T05:57:50.979Z,5
2018-03-13T05:58:51.589Z,5
2018-03-13T05:59:52.180Z,5
2018-03-13T06:00:52.781Z,5
2018-03-13T06:01:53.411Z,5
2018-03-13T06:02:54.007Z,5
2018-03-13T06:03:54.598Z,5
2018-03-13T06:04:55.204Z,5
2018-03-13T06:05:55.800Z,5
2018-03-13T06:06:56.394Z,5
2018-03-13T06:07:57.002Z,5
2018-03-13T06:08:57.599Z,10
2018-03-13T06:09:58.200Z,10
2018-03-13T06:10:58.807Z,10
2018-03-13T06:11:59.407Z,15
2018-03-13T06:13:00.000Z,10
2018-03-13T06:14:00.598Z,20
2018-03-13T06:15:01.195Z,25
2018-03-13T06:16:01.810Z,20
2018-03-13T06:17:02.448Z,15
2018-03-13T06:18:03.005Z,20
2018-03-13T06:19:03.618Z,20
2018-03-13T06:20:04.272Z,25
2018-03-13T06:21:04.862Z,30
2018-03-13T06:22:05.460Z,35
2018-03-13T06:23:06.054Z,30
2018-03-13T06:24:06.661Z,40
2018-03-13T06:25:07.266Z,45
2018-03-13T06:26:07.876Z,45
2018-03-13T06:27:08.522Z,80
2018-03-13T06:28:09.100Z,70
2018-03-13T06:29:09.711Z,50
2018-03-13T06:30:10.269Z,50
2018-03-13T06:31:10.868Z,55
2018-03-13T06:32:11.465Z,60
2018-03-13T06:33:12.265Z,60
2018-03-13T06:34:12.861Z,60
2018-03-13T06:35:13.470Z,65
2018-03-13T06:36:14.069Z,70
2018-03-13T06:37:14.681Z,75
2018-03-13T06:38:15.292Z,65
2018-03-13T06:39:15.878Z,60
2018-03-13T06:40:16.475Z,65
2018-03-13T06:41:17.082Z,60
2018-03-13T06:42:17.693Z,45
2018-03-13T06:43:18.284Z,50
2018-03-13T06:44:18.884Z,45
2018-03-13T06:45:19.490Z,40
2018-03-13T06:46:20.100Z,40
2018-03-13T06:47:20.703Z,30
2018-03-13T06:48:21.299Z,30
2018-03-13T06:49:21.908Z,35
2018-03-13T06:50:22.517Z,30
2018-03-13T06:51:23.111Z,25
2018-03-13T06:52:23.735Z,30
2018-03-13T06:53:24.323Z,35
2018-03-13T06:54:24.923Z,30
2018-03-13T06:55:25.521Z,35
2018-03-13T06:56:26.119Z,35
2018-03-13T06:57:26.727Z,40
2018-03-13T06:58:27.331Z,35
2018-03-13T06:59:27.947Z,35
2018-03-13T07:00:28.563Z,40
2018-03-13T07:01:29.149Z,40
2018-03-13T07:02:29.753Z,45
2018-03-13T07:03:30.361Z,50
2018-03-13T07:04:30.944Z,55
2018-03-13T07:05:31.602Z,60
2018-03-13T07:06:32.207Z,65
2018-03-13T07:07:32.859Z,75
2018-03-13T07:08:33.409Z,85
2018-03-13T07:09:34.022Z,90
2018-03-13T07:10:34.624Z,90
2018-03-13T07:11:35.247Z,95
2018-03-13T07:12:35.831Z,90
2018-03-13T07:13:36.443Z,90
2018-03-13T07:14:37.099Z,100
2018-03-13T07:15:37.721Z,110
2018-03-13T07:16:38.385Z,120
2018-03-13T07:17:38.967Z,135
2018-03-13T07:18:39.541Z,135
2018-03-13T07:19:40.159Z,145
2018-03-13T07:20:40.795Z,165
2018-03-13T07:21:41.424Z,140
2018-03-13T07:22:42.078Z,125
2018-03-13T07:23:42.675Z,95
2018-03-13T07:24:43.263Z,75
2018-03-13T07:25:43.872Z,110
2018-03-13T07:26:44.478Z,85
2018-03-13T07:27:45.112Z,90
2018-03-13T07:28:45.790Z,85
2018-03-13T07:29:46.381Z,105
2018-03-13T07:30:46.991Z,80
2018-03-13T07:31:47.633Z,65
2018-03-13T07:32:48.224Z,75
2018-03-13T07:33:48.835Z,55
2018-03-13T07:34:49.432Z,50
2018-03-13T07:35:50.033Z,50
2018-03-13T07:36:50.633Z,70
2018-03-13T07:37:51.269Z,75
2018-03-13T07:38:51.868Z,80
2018-03-13T07:39:52.457Z,65
2018-03-13T07:40:53.170Z,60
2018-03-13T07:41:53.681Z,85
2018-03-13T07:42:54.373Z,85
2018-03-13T07:43:54.933Z,85
2018-03-13T07:44:55.633Z,95
2018-03-13T07:45:56.210Z,140
2018-03-13T07:46:56.818Z,160
2018-03-13T07:47:57.429Z,180
2018-03-13T07:48:58.050Z,175
2018-03-13T07:49:58.666Z,180
2018-03-13T07:50:59.368Z,180
2018-03-13T07:51:59.986Z,210
2018-03-13T07:53:00.667Z,205
2018-03-13T07:54:01.295Z,220
2018-03-13T07:55:01.949Z,220
2018-03-13T07:56:02.623Z,210
2018-03-13T07:57:03.325Z,195
2018-03-13T07:58:04.010Z,210
2018-03-13T07:59:04.750Z,180
2018-03-13T08:00:05.425Z,155
2018-03-13T08:01:06.078Z,140
2018-03-13T08:02:06.777Z,135
2018-03-13T08:03:07.468Z,130
2018-03-13T08:04:08.107Z,135
2018-03-13T08:05:08.760Z,175
2018-03-13T08:06:09.422Z,180
2018-03-13T08:07:10.093Z,170
2018-03-13T08:08:10.780Z,170
2018-03-13T08:09:11.439Z,170
2018-03-13T08:10:12.103Z,185
2018-03-13T08:11:12.784Z,185
2018-03-13T08:12:13.463Z,185
2018-03-13T08:13:14.204Z,165
2018-03-13T08:14:14.896Z,155
2018-03-13T08:15:15.560Z,150
2018-03-13T08:16:16.326Z,140
2018-03-13T08:17:16.949Z,150
2018-03-13T08:18:17.681Z,135
2018-03-13T08:19:18.456Z,145
2018-03-13T08:20:19.120Z,155
2018-03-13T08:21:19.785Z,130
2018-03-13T08:22:20.449Z,145
2018-03-13T08:23:21.093Z,130
2018-03-13T08:24:27.993Z,140
2018-03-13T08:25:28.686Z,155
2018-03-13T08:26:29.334Z,175
2018-03-13T08:27:29.932Z,190
2018-03-13T08:28:30.626Z,200
2018-03-13T08:29:31.238Z,215
2018-03-13T08:30:31.870Z,200
2018-03-13T08:31:32.496Z,185
2018-03-13T08:32:33.109Z,165
2018-03-13T08:33:33.755Z,205
2018-03-13T08:34:34.495Z,220
2018-03-13T08:35:35.196Z,175
2018-03-13T08:36:35.857Z,140
2018-03-13T08:37:36.540Z,115
2018-03-13T08:38:37.234Z,120
2018-03-13T08:39:37.890Z,110
2018-03-13T08:40:38.507Z,125
2018-03-13T08:41:39.132Z,140
2018-03-13T08:42:39.800Z,150
2018-03-13T08:43:40.418Z,140
2018-03-13T08:44:41.077Z,165
2018-03-13T08:45:41.773Z,175
2018-03-13T08:46:42.421Z,170
2018-03-13T08:47:43.117Z,150
2018-03-13T08:48:43.815Z,170
2018-03-13T08:49:44.507Z,180
2018-03-13T08:50:45.233Z,205
2018-03-13T08:51:45.887Z,200
2018-03-13T08:52:46.503Z,185
2018-03-13T08:53:47.175Z,175
2018-03-13T08:54:47.777Z,215
2018-03-13T08:55:48.504Z,205
2018-03-13T08:56:49.212Z,275
2018-03-13T08:57:50.074Z,325
2018-03-13T08:58:50.758Z,280
2018-03-13T08:59:51.492Z,235
2018-03-13T09:00:52.157Z,210
2018-03-13T09:01:52.937Z,210
2018-03-13T09:02:53.602Z,215
2018-03-13T09:03:54.244Z,225
2018-03-13T09:04:54.961Z,255
2018-03-13T09:05:55.705Z,270
2018-03-13T09:06:56.350Z,275
2018-03-13T09:07:57.001Z,295
2018-03-13T09:08:57.810Z,320
2018-03-13T09:09:58.439Z,355
2018-03-13T09:10:59.104Z,320
2018-03-13T09:11:59.792Z,310
2018-03-13T09:13:00.461Z,325
2018-03-13T09:14:01.145Z,310
2018-03-13T09:15:01.789Z,335
2018-03-13T09:16:02.726Z,310
2018-03-13T09:17:03.370Z,300
2018-03-13T09:18:03.980Z,365
2018-03-13T09:19:04.666Z,275
2018-03-13T09:20:05.364Z,260
2018-03-13T09:21:06.001Z,265
2018-03-13T09:22:06.714Z,260
2018-03-13T09:23:07.296Z,270
2018-03-13T09:24:08.023Z,330
2018-03-13T09:25:08.689Z,335
2018-03-13T09:26:09.242Z,315
2018-03-13T09:27:09.920Z,340
2018-03-13T09:28:10.562Z,340
2018-03-13T09:29:11.169Z,320
2018-03-13T09:30:11.807Z,360
2018-03-13T09:31:12.452Z,320
2018-03-13T09:32:13.104Z,285
2018-03-13T09:33:13.811Z,340
2018-03-13T09:34:14.469Z,300
2018-03-13T09:35:15.135Z,300
2018-03-13T09:36:15.775Z,290
2018-03-13T09:37:16.415Z,310
2018-03-13T09:38:17.293Z,295
2018-03-13T09:39:17.982Z,285
2018-03-13T09:40:18.632Z,265
2018-03-13T09:41:19.330Z,220
2018-03-13T09:42:20.096Z,225
2018-03-13T09:43:20.681Z,215
2018-03-13T09:44:21.351Z,230
2018-03-13T09:45:21.986Z,230
2018-03-13T09:46:22.635Z,225
2018-03-13T09:47:23.207Z,210
2018-03-13T09:48:23.879Z,215
2018-03-13T09:49:24.598Z,230
2018-03-13T09:50:25.224Z,240
2018-03-13T09:51:25.831Z,230
2018-03-13T09:52:26.496Z,215
2018-03-13T09:53:27.183Z,250
2018-03-13T09:54:29.520Z,270
2018-03-13T09:55:30.119Z,280
2018-03-13T09:56:30.802Z,285
2018-03-13T09:57:31.433Z,275
2018-03-13T09:58:32.153Z,280
2018-03-13T09:59:32.843Z,310
2018-03-13T10:00:33.456Z,320
2018-03-13T10:01:34.092Z,240
2018-03-13T10:02:34.770Z,255
2018-03-13T10:03:35.456Z,300
2018-03-13T10:04:36.104Z,280
2018-03-13T10:05:36.742Z,270
2018-03-13T10:06:37.508Z,240
2018-03-13T10:07:38.160Z,250
2018-03-13T10:08:38.798Z,220
2018-03-13T10:09:39.408Z,210
2018-03-13T10:10:40.016Z,195
2018-03-13T10:11:40.612Z,180
2018-03-13T10:12:41.342Z,160
2018-03-13T10:13:42.099Z,150
2018-03-13T10:14:42.756Z,185
2018-03-13T10:15:43.414Z,235
2018-03-13T10:16:44.029Z,195
2018-03-13T10:17:44.746Z,215
2018-03-13T10:18:45.487Z,230
2018-03-13T10:19:46.115Z,205
2018-03-13T10:20:46.818Z,220
2018-03-13T10:21:47.463Z,170
2018-03-13T10:22:48.305Z,160
2018-03-13T10:23:48.951Z,265
2018-03-13T10:24:49.710Z,230
2018-03-13T10:25:50.353Z,310
2018-03-13T10:26:51.031Z,225
2018-03-13T10:27:51.719Z,230
2018-03-13T10:28:52.353Z,260
2018-03-13T10:29:52.933Z,225
2018-03-13T10:30:53.577Z,175
2018-03-13T10:31:54.190Z,205
2018-03-13T10:32:54.851Z,180
2018-03-13T10:33:55.447Z,220
2018-03-13T10:34:56.258Z,240
2018-03-13T10:35:56.912Z,200
2018-03-13T10:36:57.535Z,220
2018-03-13T10:37:58.255Z,240
2018-03-13T10:38:58.943Z,200
2018-03-13T10:39:59.655Z,230
2018-03-13T10:41:00.334Z,240
2018-03-13T10:42:02.008Z,235
2018-03-13T10:43:02.592Z,265
2018-03-13T10:44:03.220Z,270
2018-03-13T10:45:03.915Z,295
2018-03-13T10:46:04.570Z,290
2018-03-13T10:47:05.218Z,235
2018-03-13T10:48:05.971Z,215
2018-03-13T10:49:06.634Z,215
2018-03-13T10:50:07.303Z,265
2018-03-13T10:51:07.967Z,265
2018-03-13T10:52:08.564Z,260
2018-03-13T10:53:09.236Z,275
2018-03-13T10:54:09.916Z,300
2018-03-13T10:55:10.551Z,270
2018-03-13T10:56:11.232Z,290
2018-03-13T10:57:11.911Z,295
2018-03-13T10:58:12.534Z,260
2018-03-13T10:59:13.211Z,280
2018-03-13T11:00:13.877Z,355
2018-03-13T11:01:14.626Z,305
2018-03-13T11:02:15.235Z,265
2018-03-13T11:03:15.928Z,265
2018-03-13T11:04:16.584Z,250
2018-03-13T11:05:17.257Z,220
2018-03-13T11:06:17.967Z,230
2018-03-13T11:07:18.650Z,220
2018-03-13T11:08:19.357Z,240
2018-03-13T11:09:20.007Z,220
2018-03-13T11:10:20.666Z,195
2018-03-13T11:11:21.352Z,180
2018-03-13T11:12:22.030Z,200
2018-03-13T11:13:22.747Z,220
2018-03-13T11:14:23.519Z,200
2018-03-13T11:15:24.204Z,225
2018-03-13T11:16:24.874Z,225
2018-03-13T11:17:25.566Z,205
2018-03-13T11:18:26.235Z,215
2018-03-13T11:19:26.909Z,215
2018-03-13T11:20:27.535Z,220
2018-03-13T11:21:28.150Z,195
2018-03-13T11:22:28.851Z,230
2018-03-13T11:23:29.518Z,245
2018-03-13T11:24:30.195Z,225
2018-03-13T11:25:30.813Z,230
2018-03-13T11:26:31.532Z,255
2018-03-13T11:27:32.130Z,275
2018-03-13T11:28:32.821Z,275
2018-03-13T11:29:33.402Z,330
2018-03-13T11:30:34.015Z,310
2018-03-13T11:31:34.734Z,270
2018-03-13T11:32:35.463Z,380
2018-03-13T11:33:36.100Z,310
2018-03-13T11:34:36.882Z,315
2018-03-13T11:35:37.583Z,315
2018-03-13T11:36:38.288Z,235
2018-03-13T11:37:39.075Z,290
2018-03-13T11:38:39.758Z,315
2018-03-13T11:39:40.534Z,310
2018-03-13T11:40:41.310Z,315
2018-03-13T11:41:41.976Z,280
2018-03-13T11:42:42.690Z,245
2018-03-13T11:43:43.388Z,225
2018-03-13T11:44:44.079Z,260
2018-03-13T11:45:44.723Z,255
2018-03-13T11:46:45.324Z,325
2018-03-13T11:47:45.966Z,330
2018-03-13T11:48:46.571Z,360
2018-03-13T11:49:47.203Z,295
2018-03-13T11:50:47.869Z,355
2018-03-13T11:51:48.551Z,310
2018-03-13T11:52:49.198Z,345
2018-03-13T11:53:49.924Z,325
2018-03-13T11:54:50.536Z,285
2018-03-13T11:55:51.168Z,280
2018-03-13T11:56:51.760Z,285
2018-03-13T11:57:52.384Z,295
2018-03-13T11:58:53.028Z,320
2018-03-13T11:59:53.673Z,275
2018-03-13T12:00:54.244Z,295
2018-03-13T12:01:54.932Z,265
2018-03-13T12:02:55.659Z,300
2018-03-13T12:03:56.332Z,275
2018-03-13T12:04:56.985Z,240
2018-03-13T12:05:57.627Z,205
2018-03-13T12:06:58.274Z,200
2018-03-13T12:07:58.990Z,230
2018-03-13T12:08:59.639Z,235
2018-03-13T12:10:00.341Z,320
2018-03-13T12:11:01.052Z,265
2018-03-13T12:12:01.695Z,320
2018-03-13T12:13:02.344Z,255
2018-03-13T12:14:02.991Z,270
2018-03-13T12:15:03.649Z,265
2018-03-13T12:16:04.388Z,295
2018-03-13T12:17:05.122Z,240
2018-03-13T12:18:05.790Z,260
2018-03-13T12:19:06.392Z,255
2018-03-13T12:20:07.030Z,250
2018-03-13T12:21:07.736Z,225
2018-03-13T12:22:08.423Z,245
2018-03-13T12:23:09.122Z,250
2018-03-13T12:24:09.799Z,230
2018-03-13T12:25:10.506Z,195
2018-03-13T12:26:11.183Z,230
2018-03-13T12:27:11.900Z,210
2018-03-13T12:28:12.584Z,250
2018-03-13T12:29:13.205Z,255
2018-03-13T12:30:13.782Z,240
2018-03-13T12:31:14.472Z,205
2018-03-13T12:32:15.283Z,215
2018-03-13T12:33:15.991Z,200
2018-03-13T12:34:16.694Z,220
2018-03-13T12:35:17.365Z,195
2018-03-13T12:36:18.040Z,225
2018-03-13T12:37:18.772Z,235
2018-03-13T12:38:19.442Z,195
2018-03-13T12:39:20.167Z,195
2018-03-13T12:40:21.060Z,160
2018-03-13T12:41:21.621Z,165
2018-03-13T12:42:22.223Z,120
2018-03-13T12:43:22.842Z,125
2018-03-13T12:44:23.579Z,135
2018-03-13T12:45:24.288Z,145
2018-03-13T12:46:24.950Z,220
2018-03-13T12:47:25.663Z,220
2018-03-13T12:48:26.340Z,255
2018-03-13T12:49:27.030Z,255
2018-03-13T12:50:27.734Z,275
2018-03-13T12:51:28.386Z,270
2018-03-13T12:52:29.101Z,245
2018-03-13T12:53:29.769Z,300
2018-03-13T12:54:30.468Z,355
2018-03-13T12:55:31.122Z,345
2018-03-13T12:56:31.804Z,335
2018-03-13T12:57:32.513Z,450
2018-03-13T12:58:33.160Z,525
2018-03-13T12:59:33.942Z,620
2018-03-13T13:00:34.953Z,720
2018-03-13T13:01:35.917Z,760
2018-03-13T13:02:36.596Z,840
2018-03-13T13:03:37.266Z,830
2018-03-13T13:04:37.975Z,860
2018-03-13T13:05:38.699Z,825
2018-03-13T13:06:39.497Z,750
2018-03-13T13:07:40.229Z,850
2018-03-13T13:08:40.918Z,680
2018-03-13T13:09:41.663Z,625
2018-03-13T13:10:42.471Z,470
2018-03-13T13:11:43.133Z,545
2018-03-13T13:12:43.790Z,440
2018-03-13T13:13:44.526Z,555
2018-03-13T13:14:45.243Z,550
2018-03-13T13:15:45.939Z,480
2018-03-13T13:16:46.688Z,685
2018-03-13T13:17:47.326Z,705
2018-03-13T13:18:48.076Z,705
2018-03-13T13:19:49.768Z,695
2018-03-13T13:20:50.502Z,750
2018-03-13T13:21:51.201Z,670
2018-03-13T13:22:51.912Z,555
2018-03-13T13:23:52.630Z,445
2018-03-13T13:24:53.326Z,435
2018-03-13T13:25:54.052Z,615
2018-03-13T13:26:54.865Z,565
2018-03-13T13:27:55.660Z,510
2018-03-13T13:28:56.358Z,485
2018-03-13T13:29:57.099Z,385
2018-03-13T13:30:58.210Z,480
2018-03-13T13:31:58.924Z,480
2018-03-13T13:32:59.609Z,385
2018-03-13T13:34:00.688Z,290
2018-03-13T13:35:01.686Z,295
2018-03-13T13:36:02.394Z,270
2018-03-13T13:37:03.115Z,215
2018-03-13T13:38:03.785Z,215
2018-03-13T13:39:04.438Z,200
2018-03-13T13:40:05.190Z,180
2018-03-13T13:41:05.794Z,185
2018-03-13T13:42:06.584Z,180
2018-03-13T13:43:07.582Z,200
2018-03-13T13:44:08.514Z,250
2018-03-13T13:45:09.386Z,225
2018-03-13T13:46:10.166Z,225
2018-03-13T13:47:10.855Z,260
2018-03-13T13:48:11.819Z,325
2018-03-13T13:49:12.540Z,290
2018-03-13T13:50:13.284Z,295
2018-03-13T13:51:14.055Z,350
2018-03-13T13:52:14.776Z,555
2018-03-13T13:53:15.457Z,505
2018-03-13T13:54:16.149Z,580
2018-03-13T13:55:16.878Z,635
2018-03-13T13:56:17.607Z,710
2018-03-13T13:57:18.344Z,735
2018-03-13T13:58:19.033Z,755
2018-03-13T13:59:19.755Z,870
2018-03-13T14:00:20.473Z,920
2018-03-13T14:01:21.187Z,880
2018-03-13T14:02:21.880Z,885
2018-03-13T14:03:22.564Z,860
2018-03-13T14:04:23.257Z,810
2018-03-13T14:05:23.987Z,815
2018-03-13T14:06:24.687Z,790
2018-03-13T14:07:25.404Z,720
2018-03-13T14:08:26.150Z,605
2018-03-13T14:09:26.838Z,560
2018-03-13T14:10:27.526Z,575
2018-03-13T14:11:28.232Z,560
2018-03-13T14:12:28.880Z,565
2018-03-13T14:13:29.572Z,545
2018-03-13T14:14:30.175Z,525
2018-03-13T14:15:30.801Z,510
2018-03-13T14:16:31.579Z,405
2018-03-13T14:17:32.476Z,425
2018-03-13T14:18:33.176Z,525
2018-03-13T14:19:33.915Z,620
2018-03-13T14:20:34.685Z,670
2018-03-13T14:21:35.448Z,670
2018-03-13T14:22:36.165Z,660
2018-03-13T14:23:36.856Z,630